Nota Bene — FAA4220 — position and weather

sailwx.info

Track history (hours):
 
Tides and Currents Weather Stations Pressure Air Temp Water Temp Dewpoint Dewpoint Depression Visibility Wind Speed Wind Dir Waves Ship Positions

Nota Bene

Last reported at 2017-Aug-19 15:56 UTC. Time now 2017-Sep-20 18:23 UTC.
Position N 47°35' W 003°02'.
Warning: this ship's position is 32 days out of date.

Length 11 m.

Type: Sailing vessel. MMSI: 227120860.

Date/timePositionNaut miles runAvg speedWind from/ knotsBaromVisibWave heightAir tempDewpointWater temp
2017-Aug-19 15:56N 47°35' W 003°02'2 4.1
2017-Aug-19 15:30N 47°34' W 003°01'4 7.4
2017-Aug-19 15:00N 47°30' W 003°00'5 2.5
2017-Aug-19 12:57N 47°25' W 002°57'3 7.6
2017-Aug-19 12:30N 47°28' W 003°00'3 6.5
2017-Aug-19 12:00N 47°30' W 003°04'3 5.3
2017-Aug-19 11:30N 47°32' W 003°02'3 5.5
2017-Aug-19 11:00N 47°35' W 003°01'  
2017-Aug-16 16:32N 47°35' W 003°01'0 3.8
2017-Aug-16 16:30N 47°35' W 003°01'2 4.7
2017-Aug-16 16:00N 47°33' W 003°00'2 4.7
2017-Aug-16 15:30N 47°31' W 002°59'2 4.4
2017-Aug-16 15:00N 47°29' W 003°00'3 3.7
2017-Aug-16 14:10N 47°26' W 002°59'1 5.8
2017-Aug-16 14:00N 47°26' W 003°00'2 4.2
2017-Aug-16 13:30N 47°28' W 003°02'2 4.7
2017-Aug-16 13:00N 47°30' W 003°04'2 3.5
2017-Aug-16 12:30N 47°31' W 003°03'2 3.2
2017-Aug-16 12:00N 47°32' W 003°01'2 3.3
2017-Aug-16 11:30N 47°34' W 003°01'2 0.1
2017-Aug-15 09:51N 47°35' W 003°02'0 0.0
2017-Aug-15 09:30N 47°35' W 003°02'0 0.0
2017-Aug-15 08:51N 47°35' W 003°02'0 0.0
2017-Aug-15 08:21N 47°35' W 003°02'0 0.0
2017-Aug-14 09:11N 47°35' W 003°02'  
2017-Aug-11 13:05N 47°35' W 003°01'0 3.1
2017-Aug-11 12:58N 47°35' W 003°01'2 5.4
2017-Aug-11 12:30N 47°33' W 003°01'4 7.0
2017-Aug-11 12:00N 47°29' W 003°00'  
Track history (hours):
 
Tides and Currents Weather Stations Pressure Air Temp Water Temp Dewpoint Dewpoint Depression Visibility Wind Speed Wind Dir Waves Ship Positions

Nota Bene

Last reported at 2017-Aug-19 15:56 UTC. Time now 2017-Sep-20 18:23 UTC.
Position N 47°35' W 003°02'.
Warning: this ship's position is 32 days out of date.

Length 11 m.

Type: Sailing vessel. MMSI: 227120860.

Date/timePositionNaut miles runAvg speedWind from/ knotsBaromVisibWave heightAir tempDewpointWater temp
2017-Aug-19 15:56N 47°35' W 003°02'2 4.1
2017-Aug-19 15:30N 47°34' W 003°01'4 7.4
2017-Aug-19 15:00N 47°30' W 003°00'5 2.5
2017-Aug-19 12:57N 47°25' W 002°57'3 7.6
2017-Aug-19 12:30N 47°28' W 003°00'3 6.5
2017-Aug-19 12:00N 47°30' W 003°04'3 5.3
2017-Aug-19 11:30N 47°32' W 003°02'3 5.5
2017-Aug-19 11:00N 47°35' W 003°01'  
2017-Aug-16 16:32N 47°35' W 003°01'0 3.8
2017-Aug-16 16:30N 47°35' W 003°01'2 4.7
2017-Aug-16 16:00N 47°33' W 003°00'2 4.7
2017-Aug-16 15:30N 47°31' W 002°59'2 4.4
2017-Aug-16 15:00N 47°29' W 003°00'3 3.7
2017-Aug-16 14:10N 47°26' W 002°59'1 5.8
2017-Aug-16 14:00N 47°26' W 003°00'2 4.2
2017-Aug-16 13:30N 47°28' W 003°02'2 4.7
2017-Aug-16 13:00N 47°30' W 003°04'2 3.5
2017-Aug-16 12:30N 47°31' W 003°03'2 3.2
2017-Aug-16 12:00N 47°32' W 003°01'2 3.3
2017-Aug-16 11:30N 47°34' W 003°01'2 0.1
2017-Aug-15 09:51N 47°35' W 003°02'0 0.0
2017-Aug-15 09:30N 47°35' W 003°02'0 0.0
2017-Aug-15 08:51N 47°35' W 003°02'0 0.0
2017-Aug-15 08:21N 47°35' W 003°02'0 0.0
2017-Aug-14 09:11N 47°35' W 003°02'  
2017-Aug-11 13:05N 47°35' W 003°01'0 3.1
2017-Aug-11 12:58N 47°35' W 003°01'2 5.4
2017-Aug-11 12:30N 47°33' W 003°01'4 7.0
2017-Aug-11 12:00N 47°29' W 003°00'  

Dump ship's entire track history